Terminal Aerodrome Forecast
Issued by NWS

Home | Current Version | Previous Version | Text Only | Print | Product List | Glossary On
Versions: 1 2 3 4 5 6 7 8 9 10 11 12
000
FTAK31 PAFA 271738
TAFAOM
TAF
PAOM 271738Z 2718/2818 00000KT P6SM SCT040 SCT080 BKN200
     FM280600 22010KT P6SM VCSH SCT015 OVC025
     FM281000 25004KT 5SM -RA BR OVC009=

USA.gov is the U.S. government's official web portal to all federal, state and local government web resources and services.